sensor_id;sensor_type;location;lat;lon;timestamp;temperature;humidity
3348;DHT22;1687;49.540;8.574;2023-12-07T00:01:05;5.50;97.10
3348;DHT22;1687;49.540;8.574;2023-12-07T00:03:31;5.50;96.90
3348;DHT22;1687;49.540;8.574;2023-12-07T00:05:56;5.40;97.00
3348;DHT22;1687;49.540;8.574;2023-12-07T00:08:22;5.40;97.30
3348;DHT22;1687;49.540;8.574;2023-12-07T00:10:48;5.40;97.20
3348;DHT22;1687;49.540;8.574;2023-12-07T00:13:13;5.40;97.30
3348;DHT22;1687;49.540;8.574;2023-12-07T00:15:39;5.30;97.00
3348;DHT22;1687;49.540;8.574;2023-12-07T00:18:05;5.30;96.80
3348;DHT22;1687;49.540;8.574;2023-12-07T00:20:31;5.20;97.00
3348;DHT22;1687;49.540;8.574;2023-12-07T00:22:56;5.10;97.20
3348;DHT22;1687;49.540;8.574;2023-12-07T00:25:22;5.10;96.90
3348;DHT22;1687;49.540;8.574;2023-12-07T00:27:48;5.10;97.30
3348;DHT22;1687;49.540;8.574;2023-12-07T00:30:14;5.00;97.20
3348;DHT22;1687;49.540;8.574;2023-12-07T00:32:41;5.00;97.30
3348;DHT22;1687;49.540;8.574;2023-12-07T00:35:12;5.00;97.20
3348;DHT22;1687;49.540;8.574;2023-12-07T00:37:39;4.90;97.50
3348;DHT22;1687;49.540;8.574;2023-12-07T00:40:05;4.90;97.30
3348;DHT22;1687;49.540;8.574;2023-12-07T00:42:33;4.80;97.10
3348;DHT22;1687;49.540;8.574;2023-12-07T00:45:00;4.90;97.60
3348;DHT22;1687;49.540;8.574;2023-12-07T00:47:25;4.90;97.50
3348;DHT22;1687;49.540;8.574;2023-12-07T00:49:51;4.80;97.60
3348;DHT22;1687;49.540;8.574;2023-12-07T00:52:17;4.90;97.70
3348;DHT22;1687;49.540;8.574;2023-12-07T00:54:43;4.80;97.70
3348;DHT22;1687;49.540;8.574;2023-12-07T00:57:09;4.80;97.50
3348;DHT22;1687;49.540;8.574;2023-12-07T00:59:35;4.70;97.90
3348;DHT22;1687;49.540;8.574;2023-12-07T01:02:05;4.70;97.50
3348;DHT22;1687;49.540;8.574;2023-12-07T01:04:32;4.70;97.70
3348;DHT22;1687;49.540;8.574;2023-12-07T01:06:58;4.70;97.80
3348;DHT22;1687;49.540;8.574;2023-12-07T01:09:24;4.70;97.70
3348;DHT22;1687;49.540;8.574;2023-12-07T01:11:51;4.70;97.80
3348;DHT22;1687;49.540;8.574;2023-12-07T01:14:17;4.70;97.70
3348;DHT22;1687;49.540;8.574;2023-12-07T01:16:43;4.60;97.70
3348;DHT22;1687;49.540;8.574;2023-12-07T01:19:09;4.60;97.90
3348;DHT22;1687;49.540;8.574;2023-12-07T01:21:35;4.70;98.00
3348;DHT22;1687;49.540;8.574;2023-12-07T01:24:01;4.70;97.90
3348;DHT22;1687;49.540;8.574;2023-12-07T01:26:27;4.70;97.70
3348;DHT22;1687;49.540;8.574;2023-12-07T01:28:53;4.70;97.80
3348;DHT22;1687;49.540;8.574;2023-12-07T01:31:18;4.70;97.70
3348;DHT22;1687;49.540;8.574;2023-12-07T01:33:44;4.70;97.90
3348;DHT22;1687;49.540;8.574;2023-12-07T01:36:10;4.70;97.90
3348;DHT22;1687;49.540;8.574;2023-12-07T01:38:37;4.70;97.90
3348;DHT22;1687;49.540;8.574;2023-12-07T01:41:02;4.70;98.00
3348;DHT22;1687;49.540;8.574;2023-12-07T01:43:28;4.70;98.10
3348;DHT22;1687;49.540;8.574;2023-12-07T01:45:57;4.80;98.10
3348;DHT22;1687;49.540;8.574;2023-12-07T01:48:24;4.80;98.00
3348;DHT22;1687;49.540;8.574;2023-12-07T01:50:52;4.90;98.40
3348;DHT22;1687;49.540;8.574;2023-12-07T01:53:20;4.90;98.20
3348;DHT22;1687;49.540;8.574;2023-12-07T01:55:47;4.90;98.10
3348;DHT22;1687;49.540;8.574;2023-12-07T01:58:12;4.80;98.20
3348;DHT22;1687;49.540;8.574;2023-12-07T02:00:39;4.80;98.00
3348;DHT22;1687;49.540;8.574;2023-12-07T02:03:05;4.70;97.80
3348;DHT22;1687;49.540;8.574;2023-12-07T02:05:31;4.60;97.80
3348;DHT22;1687;49.540;8.574;2023-12-07T02:07:58;4.50;98.20
3348;DHT22;1687;49.540;8.574;2023-12-07T02:10:24;4.50;98.40
3348;DHT22;1687;49.540;8.574;2023-12-07T02:12:51;4.50;98.50
3348;DHT22;1687;49.540;8.574;2023-12-07T02:15:19;4.50;98.50
3348;DHT22;1687;49.540;8.574;2023-12-07T02:18:18;4.40;98.50
3348;DHT22;1687;49.540;8.574;2023-12-07T02:23:37;4.40;98.50
3348;DHT22;1687;49.540;8.574;2023-12-07T02:26:07;4.40;98.40
3348;DHT22;1687;49.540;8.574;2023-12-07T02:28:34;4.30;98.30
3348;DHT22;1687;49.540;8.574;2023-12-07T02:30:59;4.20;98.10
3348;DHT22;1687;49.540;8.574;2023-12-07T02:33:25;4.10;98.10
3348;DHT22;1687;49.540;8.574;2023-12-07T02:35:51;4.10;98.30
3348;DHT22;1687;49.540;8.574;2023-12-07T02:38:18;4.10;98.50
3348;DHT22;1687;49.540;8.574;2023-12-07T02:40:44;4.00;98.40
3348;DHT22;1687;49.540;8.574;2023-12-07T02:43:11;4.00;98.40
3348;DHT22;1687;49.540;8.574;2023-12-07T02:45:38;4.00;98.60
3348;DHT22;1687;49.540;8.574;2023-12-07T02:48:04;4.10;98.70
3348;DHT22;1687;49.540;8.574;2023-12-07T02:50:30;4.00;98.80
3348;DHT22;1687;49.540;8.574;2023-12-07T02:52:55;4.00;98.70
3348;DHT22;1687;49.540;8.574;2023-12-07T02:55:22;4.00;98.80
3348;DHT22;1687;49.540;8.574;2023-12-07T02:57:47;4.00;98.60
3348;DHT22;1687;49.540;8.574;2023-12-07T03:00:13;3.90;98.70
3348;DHT22;1687;49.540;8.574;2023-12-07T03:02:40;3.90;98.60
3348;DHT22;1687;49.540;8.574;2023-12-07T03:05:06;3.90;98.80
3348;DHT22;1687;49.540;8.574;2023-12-07T03:07:33;3.90;98.90
3348;DHT22;1687;49.540;8.574;2023-12-07T03:09:59;3.90;98.80
3348;DHT22;1687;49.540;8.574;2023-12-07T03:12:25;3.90;98.70
3348;DHT22;1687;49.540;8.574;2023-12-07T03:14:51;3.80;98.60
3348;DHT22;1687;49.540;8.574;2023-12-07T03:17:17;3.80;98.80
3348;DHT22;1687;49.540;8.574;2023-12-07T03:19:42;3.80;98.80
3348;DHT22;1687;49.540;8.574;2023-12-07T03:22:08;3.80;98.90
3348;DHT22;1687;49.540;8.574;2023-12-07T03:24:35;3.80;99.10
3348;DHT22;1687;49.540;8.574;2023-12-07T03:27:01;3.80;99.00
3348;DHT22;1687;49.540;8.574;2023-12-07T03:29:27;3.70;98.90
3348;DHT22;1687;49.540;8.574;2023-12-07T03:31:53;3.80;98.90
3348;DHT22;1687;49.540;8.574;2023-12-07T03:34:19;3.70;99.00
3348;DHT22;1687;49.540;8.574;2023-12-07T03:36:47;3.80;99.00
3348;DHT22;1687;49.540;8.574;2023-12-07T03:39:17;3.70;99.00
3348;DHT22;1687;49.540;8.574;2023-12-07T03:41:50;3.70;99.10
3348;DHT22;1687;49.540;8.574;2023-12-07T03:44:16;3.70;98.90
3348;DHT22;1687;49.540;8.574;2023-12-07T03:46:42;3.70;99.10
3348;DHT22;1687;49.540;8.574;2023-12-07T03:49:08;3.60;99.20
3348;DHT22;1687;49.540;8.574;2023-12-07T03:51:33;3.60;99.10
3348;DHT22;1687;49.540;8.574;2023-12-07T03:54:01;3.60;99.20
3348;DHT22;1687;49.540;8.574;2023-12-07T03:56:29;3.60;99.10
3348;DHT22;1687;49.540;8.574;2023-12-07T03:58:56;3.60;99.20
3348;DHT22;1687;49.540;8.574;2023-12-07T04:01:26;3.60;99.10
3348;DHT22;1687;49.540;8.574;2023-12-07T04:03:53;3.50;98.90
3348;DHT22;1687;49.540;8.574;2023-12-07T04:06:21;3.50;99.10
3348;DHT22;1687;49.540;8.574;2023-12-07T04:08:48;3.50;99.10
3348;DHT22;1687;49.540;8.574;2023-12-07T04:11:14;3.50;99.20
3348;DHT22;1687;49.540;8.574;2023-12-07T04:13:40;3.50;99.20
3348;DHT22;1687;49.540;8.574;2023-12-07T04:16:07;3.50;99.40
3348;DHT22;1687;49.540;8.574;2023-12-07T04:18:33;3.50;99.80
3348;DHT22;1687;49.540;8.574;2023-12-07T04:20:59;3.50;99.50
3348;DHT22;1687;49.540;8.574;2023-12-07T04:23:25;3.60;99.50
3348;DHT22;1687;49.540;8.574;2023-12-07T04:25:50;3.50;99.40
3348;DHT22;1687;49.540;8.574;2023-12-07T04:28:16;3.50;99.30
3348;DHT22;1687;49.540;8.574;2023-12-07T04:30:42;3.50;99.40
3348;DHT22;1687;49.540;8.574;2023-12-07T04:33:08;3.40;99.30
3348;DHT22;1687;49.540;8.574;2023-12-07T04:35:34;3.40;99.40
3348;DHT22;1687;49.540;8.574;2023-12-07T04:38:00;3.40;99.40
3348;DHT22;1687;49.540;8.574;2023-12-07T04:40:26;3.40;99.50
3348;DHT22;1687;49.540;8.574;2023-12-07T04:42:51;3.50;99.50
3348;DHT22;1687;49.540;8.574;2023-12-07T04:45:17;3.50;99.60
3348;DHT22;1687;49.540;8.574;2023-12-07T04:47:43;3.60;99.60
3348;DHT22;1687;49.540;8.574;2023-12-07T04:50:09;3.60;99.50
3348;DHT22;1687;49.540;8.574;2023-12-07T04:52:35;3.60;99.40
3348;DHT22;1687;49.540;8.574;2023-12-07T04:55:01;3.70;99.60
3348;DHT22;1687;49.540;8.574;2023-12-07T04:57:27;3.70;99.60
3348;DHT22;1687;49.540;8.574;2023-12-07T04:59:53;3.80;99.50
3348;DHT22;1687;49.540;8.574;2023-12-07T05:02:18;3.90;99.80
3348;DHT22;1687;49.540;8.574;2023-12-07T05:04:45;3.90;99.70
3348;DHT22;1687;49.540;8.574;2023-12-07T05:07:13;4.00;99.70
3348;DHT22;1687;49.540;8.574;2023-12-07T05:09:39;4.00;99.90
3348;DHT22;1687;49.540;8.574;2023-12-07T05:12:06;4.10;99.90
3348;DHT22;1687;49.540;8.574;2023-12-07T05:14:32;4.10;99.70
3348;DHT22;1687;49.540;8.574;2023-12-07T05:16:58;4.10;99.70
3348;DHT22;1687;49.540;8.574;2023-12-07T05:19:25;4.00;99.50
3348;DHT22;1687;49.540;8.574;2023-12-07T05:21:51;4.00;99.60
3348;DHT22;1687;49.540;8.574;2023-12-07T05:24:17;4.00;99.90
3348;DHT22;1687;49.540;8.574;2023-12-07T05:26:44;4.00;99.80
3348;DHT22;1687;49.540;8.574;2023-12-07T05:29:15;4.00;99.80
3348;DHT22;1687;49.540;8.574;2023-12-07T05:31:41;4.00;99.80
3348;DHT22;1687;49.540;8.574;2023-12-07T05:34:07;4.10;99.80
3348;DHT22;1687;49.540;8.574;2023-12-07T05:36:33;4.10;99.80
3348;DHT22;1687;49.540;8.574;2023-12-07T05:38:58;4.00;99.80
3348;DHT22;1687;49.540;8.574;2023-12-07T05:41:24;4.10;99.80
3348;DHT22;1687;49.540;8.574;2023-12-07T05:43:51;4.10;99.90
3348;DHT22;1687;49.540;8.574;2023-12-07T05:46:18;4.10;99.90
3348;DHT22;1687;49.540;8.574;2023-12-07T05:48:44;4.00;99.70
3348;DHT22;1687;49.540;8.574;2023-12-07T05:51:13;4.00;99.80
3348;DHT22;1687;49.540;8.574;2023-12-07T05:53:40;4.00;99.70
3348;DHT22;1687;49.540;8.574;2023-12-07T05:56:06;3.90;99.80
3348;DHT22;1687;49.540;8.574;2023-12-07T05:58:32;3.90;99.80
3348;DHT22;1687;49.540;8.574;2023-12-07T06:00:59;3.90;99.80
3348;DHT22;1687;49.540;8.574;2023-12-07T06:03:25;3.80;99.70
3348;DHT22;1687;49.540;8.574;2023-12-07T06:05:51;3.80;99.70
3348;DHT22;1687;49.540;8.574;2023-12-07T06:08:17;3.70;99.70
3348;DHT22;1687;49.540;8.574;2023-12-07T06:10:43;3.70;99.60
3348;DHT22;1687;49.540;8.574;2023-12-07T06:13:09;3.70;99.80
3348;DHT22;1687;49.540;8.574;2023-12-07T06:15:35;3.70;99.90
3348;DHT22;1687;49.540;8.574;2023-12-07T06:18:02;3.70;99.90
3348;DHT22;1687;49.540;8.574;2023-12-07T06:20:28;3.60;99.70
3348;DHT22;1687;49.540;8.574;2023-12-07T06:22:54;3.60;99.80
3348;DHT22;1687;49.540;8.574;2023-12-07T06:25:20;3.60;99.80
3348;DHT22;1687;49.540;8.574;2023-12-07T06:27:46;3.60;99.70
3348;DHT22;1687;49.540;8.574;2023-12-07T06:30:11;3.50;99.80
3348;DHT22;1687;49.540;8.574;2023-12-07T06:32:37;3.50;99.80
3348;DHT22;1687;49.540;8.574;2023-12-07T06:35:03;3.40;99.70
3348;DHT22;1687;49.540;8.574;2023-12-07T06:37:30;3.40;99.80
3348;DHT22;1687;49.540;8.574;2023-12-07T06:39:55;3.30;99.90
3348;DHT22;1687;49.540;8.574;2023-12-07T06:42:21;3.30;99.90
3348;DHT22;1687;49.540;8.574;2023-12-07T06:44:47;3.40;99.90
3348;DHT22;1687;49.540;8.574;2023-12-07T06:47:14;3.30;99.80
3348;DHT22;1687;49.540;8.574;2023-12-07T06:49:40;3.20;99.60
3348;DHT22;1687;49.540;8.574;2023-12-07T06:52:07;3.20;99.70
3348;DHT22;1687;49.540;8.574;2023-12-07T06:54:33;3.20;99.80
3348;DHT22;1687;49.540;8.574;2023-12-07T06:56:59;3.20;99.90
3348;DHT22;1687;49.540;8.574;2023-12-07T06:59:25;3.10;99.80
3348;DHT22;1687;49.540;8.574;2023-12-07T07:01:50;3.10;99.80
3348;DHT22;1687;49.540;8.574;2023-12-07T07:04:16;3.00;99.80
3348;DHT22;1687;49.540;8.574;2023-12-07T07:06:42;3.00;99.80
3348;DHT22;1687;49.540;8.574;2023-12-07T07:09:08;3.10;99.90
3348;DHT22;1687;49.540;8.574;2023-12-07T07:11:34;3.10;99.90
3348;DHT22;1687;49.540;8.574;2023-12-07T07:14:00;3.10;99.80
3348;DHT22;1687;49.540;8.574;2023-12-07T07:16:26;3.10;99.80
3348;DHT22;1687;49.540;8.574;2023-12-07T07:18:52;3.10;99.90
3348;DHT22;1687;49.540;8.574;2023-12-07T07:21:18;3.10;99.60
3348;DHT22;1687;49.540;8.574;2023-12-07T07:23:45;3.00;99.70
3348;DHT22;1687;49.540;8.574;2023-12-07T07:26:11;3.00;99.70
3348;DHT22;1687;49.540;8.574;2023-12-07T07:28:42;3.00;99.70
3348;DHT22;1687;49.540;8.574;2023-12-07T07:31:08;2.90;99.50
3348;DHT22;1687;49.540;8.574;2023-12-07T07:33:34;2.80;99.70
3348;DHT22;1687;49.540;8.574;2023-12-07T07:35:59;2.80;99.70
3348;DHT22;1687;49.540;8.574;2023-12-07T07:38:25;2.90;99.90
3348;DHT22;1687;49.540;8.574;2023-12-07T07:40:51;2.90;99.90
3348;DHT22;1687;49.540;8.574;2023-12-07T07:43:17;2.90;99.90
3348;DHT22;1687;49.540;8.574;2023-12-07T07:45:43;3.00;99.90
3348;DHT22;1687;49.540;8.574;2023-12-07T07:48:09;3.00;99.80
3348;DHT22;1687;49.540;8.574;2023-12-07T07:50:35;3.00;99.90
3348;DHT22;1687;49.540;8.574;2023-12-07T07:53:02;3.10;99.90
3348;DHT22;1687;49.540;8.574;2023-12-07T07:55:29;3.20;99.90
3348;DHT22;1687;49.540;8.574;2023-12-07T07:57:55;3.20;99.90
3348;DHT22;1687;49.540;8.574;2023-12-07T08:00:21;3.20;99.80
3348;DHT22;1687;49.540;8.574;2023-12-07T08:02:46;3.10;99.70
3348;DHT22;1687;49.540;8.574;2023-12-07T08:05:12;3.20;99.90
3348;DHT22;1687;49.540;8.574;2023-12-07T08:07:41;3.30;99.90
3348;DHT22;1687;49.540;8.574;2023-12-07T08:10:07;3.40;99.90
3348;DHT22;1687;49.540;8.574;2023-12-07T08:12:34;3.50;99.90
3348;DHT22;1687;49.540;8.574;2023-12-07T08:15:00;3.60;99.90
3348;DHT22;1687;49.540;8.574;2023-12-07T08:17:26;3.60;99.90
3348;DHT22;1687;49.540;8.574;2023-12-07T08:19:52;3.60;99.90
3348;DHT22;1687;49.540;8.574;2023-12-07T08:22:18;3.80;99.90
3348;DHT22;1687;49.540;8.574;2023-12-07T08:24:45;3.90;99.90
3348;DHT22;1687;49.540;8.574;2023-12-07T08:27:11;4.00;99.90
3348;DHT22;1687;49.540;8.574;2023-12-07T08:29:37;4.20;99.90
3348;DHT22;1687;49.540;8.574;2023-12-07T08:32:03;4.30;99.90
3348;DHT22;1687;49.540;8.574;2023-12-07T08:34:30;4.40;99.90
3348;DHT22;1687;49.540;8.574;2023-12-07T08:36:56;4.50;99.90
3348;DHT22;1687;49.540;8.574;2023-12-07T08:39:22;4.50;99.80
3348;DHT22;1687;49.540;8.574;2023-12-07T08:41:48;4.50;99.60
3348;DHT22;1687;49.540;8.574;2023-12-07T08:44:14;4.40;99.60
3348;DHT22;1687;49.540;8.574;2023-12-07T08:46:39;4.30;99.30
3348;DHT22;1687;49.540;8.574;2023-12-07T08:49:05;4.20;99.50
3348;DHT22;1687;49.540;8.574;2023-12-07T08:51:31;4.10;99.20
3348;DHT22;1687;49.540;8.574;2023-12-07T08:53:57;4.10;99.80
3348;DHT22;1687;49.540;8.574;2023-12-07T08:56:22;4.00;99.30
3348;DHT22;1687;49.540;8.574;2023-12-07T08:58:48;3.90;99.90
3348;DHT22;1687;49.540;8.574;2023-12-07T09:01:14;4.00;99.80
3348;DHT22;1687;49.540;8.574;2023-12-07T09:03:39;4.10;99.90
3348;DHT22;1687;49.540;8.574;2023-12-07T09:06:07;4.30;99.90
3348;DHT22;1687;49.540;8.574;2023-12-07T09:08:33;4.30;99.90
3348;DHT22;1687;49.540;8.574;2023-12-07T09:10:59;4.40;99.90
3348;DHT22;1687;49.540;8.574;2023-12-07T09:13:25;4.40;99.90
3348;DHT22;1687;49.540;8.574;2023-12-07T09:15:50;4.40;99.90
3348;DHT22;1687;49.540;8.574;2023-12-07T09:18:16;4.50;99.90
3348;DHT22;1687;49.540;8.574;2023-12-07T09:20:42;4.50;99.90
3348;DHT22;1687;49.540;8.574;2023-12-07T09:23:14;4.50;99.70
3348;DHT22;1687;49.540;8.574;2023-12-07T09:25:41;4.40;99.80
3348;DHT22;1687;49.540;8.574;2023-12-07T09:28:07;4.50;99.90
3348;DHT22;1687;49.540;8.574;2023-12-07T09:30:33;4.40;99.80
3348;DHT22;1687;49.540;8.574;2023-12-07T09:33:00;4.30;99.50
3348;DHT22;1687;49.540;8.574;2023-12-07T09:35:28;4.10;99.60
3348;DHT22;1687;49.540;8.574;2023-12-07T09:37:53;4.20;99.90
3348;DHT22;1687;49.540;8.574;2023-12-07T09:40:21;4.30;99.90
3348;DHT22;1687;49.540;8.574;2023-12-07T09:42:48;4.40;99.90
3348;DHT22;1687;49.540;8.574;2023-12-07T09:45:15;4.30;99.90
3348;DHT22;1687;49.540;8.574;2023-12-07T09:47:45;4.30;99.90
3348;DHT22;1687;49.540;8.574;2023-12-07T09:50:15;4.50;99.90
3348;DHT22;1687;49.540;8.574;2023-12-07T09:52:50;4.50;99.90
3348;DHT22;1687;49.540;8.574;2023-12-07T09:55:17;4.60;99.90
3348;DHT22;1687;49.540;8.574;2023-12-07T09:57:44;4.80;99.90
3348;DHT22;1687;49.540;8.574;2023-12-07T10:00:12;5.00;99.90
3348;DHT22;1687;49.540;8.574;2023-12-07T10:02:40;4.90;99.90
3348;DHT22;1687;49.540;8.574;2023-12-07T10:05:10;5.00;99.90
3348;DHT22;1687;49.540;8.574;2023-12-07T10:07:40;5.00;99.90
3348;DHT22;1687;49.540;8.574;2023-12-07T10:10:07;5.20;99.90
3348;DHT22;1687;49.540;8.574;2023-12-07T10:12:34;5.40;99.90
3348;DHT22;1687;49.540;8.574;2023-12-07T10:15:21;5.40;99.90
3348;DHT22;1687;49.540;8.574;2023-12-07T10:17:58;5.40;99.90
3348;DHT22;1687;49.540;8.574;2023-12-07T10:20:26;5.60;99.90
3348;DHT22;1687;49.540;8.574;2023-12-07T10:23:06;5.80;99.90
3348;DHT22;1687;49.540;8.574;2023-12-07T10:25:39;5.90;99.90
3348;DHT22;1687;49.540;8.574;2023-12-07T10:28:07;6.00;99.90
3348;DHT22;1687;49.540;8.574;2023-12-07T10:30:34;6.00;99.90
3348;DHT22;1687;49.540;8.574;2023-12-07T10:33:06;6.20;99.90
3348;DHT22;1687;49.540;8.574;2023-12-07T10:35:33;6.30;99.90
3348;DHT22;1687;49.540;8.574;2023-12-07T10:38:03;6.30;99.90
3348;DHT22;1687;49.540;8.574;2023-12-07T10:40:30;6.20;99.90
3348;DHT22;1687;49.540;8.574;2023-12-07T10:42:57;6.20;99.90
3348;DHT22;1687;49.540;8.574;2023-12-07T10:45:29;6.40;99.90
3348;DHT22;1687;49.540;8.574;2023-12-07T10:48:02;6.50;99.90
3348;DHT22;1687;49.540;8.574;2023-12-07T10:50:35;6.50;99.90
3348;DHT22;1687;49.540;8.574;2023-12-07T10:53:10;6.60;99.90
3348;DHT22;1687;49.540;8.574;2023-12-07T10:55:42;6.70;99.90
3348;DHT22;1687;49.540;8.574;2023-12-07T10:58:13;6.60;99.90
3348;DHT22;1687;49.540;8.574;2023-12-07T11:00:43;6.70;99.90
3348;DHT22;1687;49.540;8.574;2023-12-07T11:03:15;6.80;99.90
3348;DHT22;1687;49.540;8.574;2023-12-07T11:05:42;6.80;99.90
3348;DHT22;1687;49.540;8.574;2023-12-07T11:08:14;6.80;99.90
3348;DHT22;1687;49.540;8.574;2023-12-07T11:11:04;6.90;99.90
3348;DHT22;1687;49.540;8.574;2023-12-07T11:13:37;6.80;99.90
3348;DHT22;1687;49.540;8.574;2023-12-07T11:16:04;6.90;99.90
3348;DHT22;1687;49.540;8.574;2023-12-07T11:18:30;7.00;99.90
3348;DHT22;1687;49.540;8.574;2023-12-07T11:20:56;7.00;99.90
3348;DHT22;1687;49.540;8.574;2023-12-07T11:23:23;7.00;99.90
3348;DHT22;1687;49.540;8.574;2023-12-07T11:25:51;7.00;99.70
3348;DHT22;1687;49.540;8.574;2023-12-07T11:28:18;6.90;99.40
3348;DHT22;1687;49.540;8.574;2023-12-07T11:30:46;6.60;99.30
3348;DHT22;1687;49.540;8.574;2023-12-07T11:33:13;6.40;99.50
3348;DHT22;1687;49.540;8.574;2023-12-07T11:36:18;6.30;99.60
3348;DHT22;1687;49.540;8.574;2023-12-07T11:41:43;6.10;99.60
3348;DHT22;1687;49.540;8.574;2023-12-07T11:44:10;6.10;99.80
3348;DHT22;1687;49.540;8.574;2023-12-07T11:46:37;6.10;99.80
3348;DHT22;1687;49.540;8.574;2023-12-07T11:49:03;6.40;99.90
3348;DHT22;1687;49.540;8.574;2023-12-07T11:51:31;6.60;99.90
3348;DHT22;1687;49.540;8.574;2023-12-07T11:53:57;6.70;99.70
3348;DHT22;1687;49.540;8.574;2023-12-07T11:56:22;6.60;99.10
3348;DHT22;1687;49.540;8.574;2023-12-07T11:58:48;6.50;99.50
3348;DHT22;1687;49.540;8.574;2023-12-07T12:01:15;6.30;99.20
3348;DHT22;1687;49.540;8.574;2023-12-07T12:03:43;6.10;99.10
3348;DHT22;1687;49.540;8.574;2023-12-07T12:06:08;6.10;99.60
3348;DHT22;1687;49.540;8.574;2023-12-07T12:08:36;6.10;99.90
3348;DHT22;1687;49.540;8.574;2023-12-07T12:11:02;6.20;99.60
3348;DHT22;1687;49.540;8.574;2023-12-07T12:13:35;6.20;99.70
3348;DHT22;1687;49.540;8.574;2023-12-07T12:16:01;6.30;99.70
3348;DHT22;1687;49.540;8.574;2023-12-07T12:18:28;6.30;99.70
3348;DHT22;1687;49.540;8.574;2023-12-07T12:20:54;6.40;99.60
3348;DHT22;1687;49.540;8.574;2023-12-07T12:23:20;6.30;99.10
3348;DHT22;1687;49.540;8.574;2023-12-07T12:25:46;6.30;99.30
3348;DHT22;1687;49.540;8.574;2023-12-07T12:28:16;6.30;99.00
3348;DHT22;1687;49.540;8.574;2023-12-07T12:30:43;6.10;99.10
3348;DHT22;1687;49.540;8.574;2023-12-07T12:33:09;6.10;99.30
3348;DHT22;1687;49.540;8.574;2023-12-07T12:35:35;6.00;99.20
3348;DHT22;1687;49.540;8.574;2023-12-07T12:38:01;6.00;99.20
3348;DHT22;1687;49.540;8.574;2023-12-07T12:40:27;5.90;99.40
3348;DHT22;1687;49.540;8.574;2023-12-07T12:42:57;5.90;99.50
3348;DHT22;1687;49.540;8.574;2023-12-07T12:45:24;6.00;99.40
3348;DHT22;1687;49.540;8.574;2023-12-07T12:47:49;6.00;99.40
3348;DHT22;1687;49.540;8.574;2023-12-07T12:50:39;6.00;99.20
3348;DHT22;1687;49.540;8.574;2023-12-07T12:53:09;6.00;99.30
3348;DHT22;1687;49.540;8.574;2023-12-07T12:55:37;6.00;99.40
3348;DHT22;1687;49.540;8.574;2023-12-07T12:58:06;6.00;99.30
3348;DHT22;1687;49.540;8.574;2023-12-07T13:00:33;5.90;98.80
3348;DHT22;1687;49.540;8.574;2023-12-07T13:03:00;5.90;99.10
3348;DHT22;1687;49.540;8.574;2023-12-07T13:05:28;5.90;99.00
3348;DHT22;1687;49.540;8.574;2023-12-07T13:07:54;5.80;98.70
3348;DHT22;1687;49.540;8.574;2023-12-07T13:10:20;5.80;99.10
3348;DHT22;1687;49.540;8.574;2023-12-07T13:12:46;5.70;99.00
3348;DHT22;1687;49.540;8.574;2023-12-07T13:15:12;5.70;99.00
3348;DHT22;1687;49.540;8.574;2023-12-07T13:17:39;5.70;99.10
3348;DHT22;1687;49.540;8.574;2023-12-07T13:20:07;5.60;99.00
3348;DHT22;1687;49.540;8.574;2023-12-07T13:22:42;5.50;98.60
3348;DHT22;1687;49.540;8.574;2023-12-07T13:25:09;5.40;99.20
3348;DHT22;1687;49.540;8.574;2023-12-07T13:27:35;5.50;99.60
3348;DHT22;1687;49.540;8.574;2023-12-07T13:30:02;5.40;99.20
3348;DHT22;1687;49.540;8.574;2023-12-07T13:32:32;5.40;99.30
3348;DHT22;1687;49.540;8.574;2023-12-07T13:35:00;5.40;99.20
3348;DHT22;1687;49.540;8.574;2023-12-07T13:37:27;5.40;99.30
3348;DHT22;1687;49.540;8.574;2023-12-07T13:39:52;5.30;99.20
3348;DHT22;1687;49.540;8.574;2023-12-07T13:42:23;5.30;99.30
3348;DHT22;1687;49.540;8.574;2023-12-07T13:44:55;5.40;99.40
3348;DHT22;1687;49.540;8.574;2023-12-07T13:47:26;5.30;99.00
3348;DHT22;1687;49.540;8.574;2023-12-07T13:50:00;5.30;99.40
3348;DHT22;1687;49.540;8.574;2023-12-07T13:52:26;5.30;99.60
3348;DHT22;1687;49.540;8.574;2023-12-07T13:54:54;5.40;99.40
3348;DHT22;1687;49.540;8.574;2023-12-07T13:57:21;5.30;99.30
3348;DHT22;1687;49.540;8.574;2023-12-07T13:59:49;5.30;99.30
3348;DHT22;1687;49.540;8.574;2023-12-07T14:02:16;5.30;99.40
3348;DHT22;1687;49.540;8.574;2023-12-07T14:04:42;5.30;99.30
3348;DHT22;1687;49.540;8.574;2023-12-07T14:07:12;5.20;99.20
3348;DHT22;1687;49.540;8.574;2023-12-07T14:09:44;5.20;99.50
3348;DHT22;1687;49.540;8.574;2023-12-07T14:12:12;5.20;99.50
3348;DHT22;1687;49.540;8.574;2023-12-07T14:14:42;5.20;99.40
3348;DHT22;1687;49.540;8.574;2023-12-07T14:17:10;5.20;99.40
3348;DHT22;1687;49.540;8.574;2023-12-07T14:19:39;5.20;99.60
3348;DHT22;1687;49.540;8.574;2023-12-07T14:22:05;5.30;99.90
3348;DHT22;1687;49.540;8.574;2023-12-07T14:24:31;5.30;99.60
3348;DHT22;1687;49.540;8.574;2023-12-07T14:26:58;5.30;99.80
3348;DHT22;1687;49.540;8.574;2023-12-07T14:29:24;5.40;99.70
3348;DHT22;1687;49.540;8.574;2023-12-07T14:31:51;5.30;99.50
3348;DHT22;1687;49.540;8.574;2023-12-07T14:34:17;5.30;99.50
3348;DHT22;1687;49.540;8.574;2023-12-07T14:36:44;5.30;99.70
3348;DHT22;1687;49.540;8.574;2023-12-07T14:39:13;5.30;99.50
3348;DHT22;1687;49.540;8.574;2023-12-07T14:41:46;5.20;99.10
3348;DHT22;1687;49.540;8.574;2023-12-07T14:44:16;5.10;99.20
3348;DHT22;1687;49.540;8.574;2023-12-07T14:46:43;5.00;98.80
3348;DHT22;1687;49.540;8.574;2023-12-07T14:49:13;4.80;99.30
3348;DHT22;1687;49.540;8.574;2023-12-07T14:51:40;4.80;99.40
3348;DHT22;1687;49.540;8.574;2023-12-07T14:54:06;4.80;99.50
3348;DHT22;1687;49.540;8.574;2023-12-07T14:56:33;4.80;99.40
3348;DHT22;1687;49.540;8.574;2023-12-07T14:59:01;4.70;99.20
3348;DHT22;1687;49.540;8.574;2023-12-07T15:01:27;4.60;99.30
3348;DHT22;1687;49.540;8.574;2023-12-07T15:03:53;4.50;99.30
3348;DHT22;1687;49.540;8.574;2023-12-07T15:06:19;4.40;99.20
3348;DHT22;1687;49.540;8.574;2023-12-07T15:08:45;4.30;99.20
3348;DHT22;1687;49.540;8.574;2023-12-07T15:11:12;4.30;99.30
3348;DHT22;1687;49.540;8.574;2023-12-07T15:13:38;4.20;99.40
3348;DHT22;1687;49.540;8.574;2023-12-07T15:16:05;4.10;99.50
3348;DHT22;1687;49.540;8.574;2023-12-07T15:18:31;4.10;99.20
3348;DHT22;1687;49.540;8.574;2023-12-07T15:21:01;4.00;99.30
3348;DHT22;1687;49.540;8.574;2023-12-07T15:23:27;4.00;99.60
3348;DHT22;1687;49.540;8.574;2023-12-07T15:25:53;3.90;99.70
3348;DHT22;1687;49.540;8.574;2023-12-07T15:28:20;4.00;99.80
3348;DHT22;1687;49.540;8.574;2023-12-07T15:30:47;3.90;99.60
3348;DHT22;1687;49.540;8.574;2023-12-07T15:33:13;4.00;99.70
3348;DHT22;1687;49.540;8.574;2023-12-07T15:35:40;4.00;99.70
3348;DHT22;1687;49.540;8.574;2023-12-07T15:38:06;4.00;99.90
3348;DHT22;1687;49.540;8.574;2023-12-07T15:40:32;4.10;99.90
3348;DHT22;1687;49.540;8.574;2023-12-07T15:42:57;4.00;99.90
3348;DHT22;1687;49.540;8.574;2023-12-07T15:45:23;4.10;99.90
3348;DHT22;1687;49.540;8.574;2023-12-07T15:47:49;4.10;99.90
3348;DHT22;1687;49.540;8.574;2023-12-07T15:50:15;4.20;99.80
3348;DHT22;1687;49.540;8.574;2023-12-07T15:52:41;4.10;99.70
3348;DHT22;1687;49.540;8.574;2023-12-07T15:55:07;4.10;99.90
3348;DHT22;1687;49.540;8.574;2023-12-07T15:57:34;4.10;99.90
3348;DHT22;1687;49.540;8.574;2023-12-07T16:00:00;4.10;99.90
3348;DHT22;1687;49.540;8.574;2023-12-07T16:02:25;4.20;99.90
3348;DHT22;1687;49.540;8.574;2023-12-07T16:04:51;4.20;99.90
3348;DHT22;1687;49.540;8.574;2023-12-07T16:07:18;4.20;99.90
3348;DHT22;1687;49.540;8.574;2023-12-07T16:09:44;4.20;99.70
3348;DHT22;1687;49.540;8.574;2023-12-07T16:12:10;4.20;99.80
3348;DHT22;1687;49.540;8.574;2023-12-07T16:14:37;4.20;99.90
3348;DHT22;1687;49.540;8.574;2023-12-07T16:17:04;4.20;99.90
3348;DHT22;1687;49.540;8.574;2023-12-07T16:19:30;4.20;99.90
3348;DHT22;1687;49.540;8.574;2023-12-07T16:21:56;4.30;99.80